Main page
METAR-TAF:

METAR-TAF

Airports :

Bahrain International Airport

Bahrain, Bahrain

latitude: 26-16N, longitude: 050-39E, elevation: 2 m

Current weather observation

The report was made 44 minutes ago, at 04:00 UTC
Wind 13 kt from the Northwest
Temperature 27°C
Humidity 70%
Pressure 1014 hPa
Visibility 10 km or more
no clouds below 1500 m and no cumulonimbus

METAR: OBBI 230400Z 31013KT CAVOK 27/21 Q1014 NOSIG

Time: 07:44 (04:44 UTC)

Forecast

The report was made 5 hours and 44 minutes ago, at 23:00 UTC
Forecast valid from 23 at 00 UTC to 24 at 06 UTC
Wind 12 kt from the North/Northwest
Visibility 10 km or more
no clouds below 1500 m and no cumulonimbus
Becoming
from 24 at 00 UTC to 24 at 03 UTC
Wind 4 kt from the West

TAF: OBBI 222300Z 2300/2406 33012KT CAVOK BECMG 2400/2403 27004KT

Weather observations and forecasts of more than 4000 airports (METAR and TAF reports).

The available stations are represented by yellow and red dots on the map.

Hover mouse over dot to see the name of the station.

Then click to see weather observations and forecasts.

To change the map : click on the green buttons with a black cross to zoom in, on the green button with a dash to zoom out, or on the green arrows for adjacent maps.


METAR-TAF: